Time;durP1;ratioP1;P1;durP2;ratioP2;P2;SDS_P1;SDS_P2;PMS_P1;PMS_P2;Temp;Humidity;BMP_temperature;BMP_pressure;BME280_temperature;BME280_humidity;BME280_pressure;Samples;Min_cycle;Max_cycle;Signal;HPM_P1;HPM_P2
2022/01/18 00:00:56;0.00;0.00;0.62;0.00;0.00;0.62;2.03;1.13;;;22.20;28.90;;;;;;2244847;61;20609;-62
2022/01/18 00:03:41;0.00;0.00;0.62;0.00;0.00;0.62;2.17;1.00;;;22.20;28.80;;;;;;2244598;61;20370;-62
2022/01/18 00:06:26;0.00;0.00;0.62;0.00;0.00;0.62;2.10;1.10;;;22.20;28.80;;;;;;2245592;61;20381;-63
2022/01/18 00:09:11;0.00;0.00;0.62;0.00;0.00;0.62;2.50;1.00;;;22.20;28.80;;;;;;2244647;61;20613;-60
2022/01/18 00:12:13;0.00;0.00;0.62;0.00;0.00;0.62;2.23;1.50;;;22.20;28.80;;;;;;2245785;61;20663;-61
2022/01/18 00:15:16;0.00;0.00;0.62;0.00;0.00;0.62;3.50;1.50;;;22.20;28.80;;;;;;2246059;61;20419;-61
2022/01/18 00:21:00;0.00;0.00;0.62;0.00;0.00;0.62;2.87;1.50;;;22.10;28.50;;;;;;2245807;61;20716;-60
2022/01/18 00:23:46;0.00;0.00;0.62;0.00;0.00;0.62;3.87;1.53;;;22.10;28.40;;;;;;2245481;61;20762;-60
2022/01/18 00:26:32;0.00;0.00;0.62;0.00;0.00;0.62;4.03;1.73;;;22.10;28.40;;;;;;2245698;61;20449;-60
2022/01/18 00:29:19;0.00;0.00;0.62;0.00;0.00;0.62;6.33;1.90;;;22.10;28.40;;;;;;2246258;61;20377;-60
2022/01/18 00:34:55;0.00;0.00;0.62;0.00;0.00;0.62;4.20;1.60;;;22.00;28.20;;;;;;2246028;61;20701;-60
2022/01/18 00:37:50;0.00;0.00;0.62;0.00;0.00;0.62;5.63;2.10;;;21.90;28.10;;;;;;2245511;61;20382;-61
2022/01/18 00:40:35;0.00;0.00;0.62;0.00;0.00;0.62;4.33;1.70;;;21.90;28.10;;;;;;2245192;61;20382;-61
2022/01/18 00:43:19;0.00;0.00;0.62;0.00;0.00;0.62;3.90;1.60;;;21.90;28.20;;;;;;2246148;61;20761;-60
2022/01/18 00:46:04;0.00;0.00;0.62;0.00;0.00;0.62;6.23;2.27;;;21.90;28.20;;;;;;2244739;61;20777;-61
2022/01/18 00:48:49;0.00;0.00;0.62;0.00;0.00;0.62;3.00;1.47;;;21.90;28.30;;;;;;2245835;61;20470;-61
2022/01/18 00:51:38;0.00;0.00;0.62;0.00;0.00;0.62;4.00;1.60;;;21.90;28.30;;;;;;2245780;61;20385;-60
2022/01/18 00:54:32;0.00;0.00;0.62;0.00;0.00;0.62;4.10;1.50;;;21.80;28.20;;;;;;2245087;61;20429;-60
2022/01/18 00:57:17;0.00;0.00;0.62;0.00;0.00;0.62;4.40;1.80;;;21.80;28.20;;;;;;2245839;61;20381;-60
2022/01/18 01:00:02;0.00;0.00;0.62;0.00;0.00;0.62;3.57;1.80;;;21.80;28.70;;;;;;2245449;61;20418;-62
2022/01/18 01:02:47;0.00;0.00;0.62;0.00;0.00;0.62;4.83;2.60;;;21.80;28.20;;;;;;2245499;61;20434;-62
2022/01/18 01:05:32;0.00;0.00;0.62;0.00;0.00;0.62;4.17;1.80;;;21.80;28.20;;;;;;2246109;61;20365;-62
2022/01/18 01:08:18;0.00;0.00;0.62;0.00;0.00;0.62;3.40;1.67;;;21.70;28.20;;;;;;2244958;61;20600;-61
2022/01/18 01:11:04;0.00;0.00;0.62;0.00;0.00;0.62;3.43;1.30;;;21.70;28.20;;;;;;2245694;61;20457;-60
2022/01/18 01:13:52;0.00;0.00;0.62;0.00;0.00;0.62;5.63;1.80;;;21.70;28.20;;;;;;2245412;61;20358;-60
2022/01/18 01:17:06;0.00;0.00;0.62;0.00;0.00;0.62;3.00;1.63;;;21.70;28.20;;;;;;2244849;61;20588;-60
2022/01/18 01:43:26;0.00;0.00;0.62;0.00;0.00;0.62;4.20;1.80;;;21.50;28.20;;;;;;2245834;61;20398;-62
2022/01/18 01:46:11;0.00;0.00;0.62;0.00;0.00;0.62;5.30;1.40;;;21.50;28.20;;;;;;2245026;61;20471;-60
2022/01/18 01:48:58;0.00;0.00;0.62;0.00;0.00;0.62;5.00;1.60;;;21.50;28.30;;;;;;2245704;61;20361;-62
2022/01/18 01:51:47;0.00;0.00;0.62;0.00;0.00;0.62;3.00;1.27;;;21.50;28.20;;;;;;2245054;61;20373;-58
2022/01/18 01:54:32;0.00;0.00;0.62;0.00;0.00;0.62;5.00;2.07;;;21.50;28.20;;;;;;2245267;61;20434;-59
2022/01/18 01:57:17;0.00;0.00;0.62;0.00;0.00;0.62;4.43;1.67;;;21.40;28.20;;;;;;2245295;61;20429;-61
2022/01/18 02:00:07;0.00;0.00;0.62;0.00;0.00;0.62;3.30;1.63;;;21.50;28.30;;;;;;2244748;61;20430;-61
2022/01/18 02:02:51;0.00;0.00;0.62;0.00;0.00;0.62;2.40;1.40;;;21.40;28.20;;;;;;2245605;61;20393;-61
2022/01/18 02:05:36;0.00;0.00;0.62;0.00;0.00;0.62;4.73;2.27;;;21.40;28.20;;;;;;2245154;61;20385;-61
2022/01/18 02:08:21;0.00;0.00;0.62;0.00;0.00;0.62;5.20;1.53;;;21.40;28.20;;;;;;2244871;61;20357;-61
2022/01/18 02:11:05;0.00;0.00;0.62;0.00;0.00;0.62;5.37;1.90;;;21.40;28.20;;;;;;2245495;61;20389;-61
2022/01/18 02:13:50;0.00;0.00;0.62;0.00;0.00;0.62;4.30;1.87;;;21.40;28.20;;;;;;2245152;61;20463;-61
2022/01/18 02:22:45;0.00;0.00;0.62;0.00;0.00;0.62;3.17;1.20;;;21.30;28.10;;;;;;2244550;61;20421;-60
2022/01/18 02:25:30;0.00;0.00;0.62;0.00;0.00;0.62;3.43;1.70;;;21.30;28.10;;;;;;2245621;61;20361;-61
2022/01/18 02:28:16;0.00;0.00;0.62;0.00;0.00;0.62;3.67;1.80;;;21.30;28.20;;;;;;2245567;61;20358;-61
2022/01/18 02:31:01;0.00;0.00;0.62;0.00;0.00;0.62;3.13;1.50;;;21.30;28.20;;;;;;2244868;61;20393;-61
2022/01/18 02:33:46;0.00;0.00;0.62;0.00;0.00;0.62;4.33;1.80;;;21.20;28.10;;;;;;2245358;61;20369;-60
2022/01/18 02:36:31;0.00;0.00;0.62;0.00;0.00;0.62;4.33;1.40;;;21.30;28.20;;;;;;2245163;61;20598;-58
2022/01/18 02:39:21;0.00;0.00;0.62;0.00;0.00;0.62;4.93;1.83;;;21.20;28.10;;;;;;2244976;61;20440;-61
2022/01/18 02:42:08;0.00;0.00;0.62;0.00;0.00;0.62;2.90;1.70;;;21.20;28.20;;;;;;2245722;61;20397;-61
2022/01/18 02:44:52;0.00;0.00;0.62;0.00;0.00;0.62;2.93;1.20;;;21.20;28.20;;;;;;2244426;61;20406;-60
2022/01/18 02:47:37;0.00;0.00;0.62;0.00;0.00;0.62;2.90;1.53;;;21.20;28.20;;;;;;2245376;61;20428;-61
2022/01/18 02:50:22;0.00;0.00;0.62;0.00;0.00;0.62;5.17;2.10;;;21.20;28.20;;;;;;2245410;61;20781;-61
2022/01/18 02:53:07;0.00;0.00;0.62;0.00;0.00;0.62;3.23;1.50;;;21.20;28.20;;;;;;2244813;61;20366;-61
2022/01/18 02:55:55;0.00;0.00;0.62;0.00;0.00;0.62;3.63;1.40;;;21.10;28.10;;;;;;2245467;61;20362;-61
2022/01/18 02:58:39;0.00;0.00;0.62;0.00;0.00;0.62;2.30;1.50;;;21.20;28.20;;;;;;2245175;61;20365;-61
2022/01/18 03:04:27;0.00;0.00;0.62;0.00;0.00;0.62;4.77;1.40;;;21.10;28.20;;;;;;2245477;61;20636;-61
2022/01/18 03:07:12;0.00;0.00;0.62;0.00;0.00;0.62;3.27;1.50;;;21.10;28.10;;;;;;2244537;61;20636;-61
2022/01/18 03:09:57;0.00;0.00;0.62;0.00;0.00;0.62;4.30;1.80;;;21.00;28.10;;;;;;2245301;61;20407;-61
2022/01/18 03:12:43;0.00;0.00;0.62;0.00;0.00;0.62;4.53;1.73;;;21.00;28.10;;;;;;2245381;61;20396;-61
2022/01/18 03:15:29;0.00;0.00;0.62;0.00;0.00;0.62;3.73;1.60;;;21.00;28.10;;;;;;2244882;61;20489;-61
2022/01/18 03:18:13;0.00;0.00;0.62;0.00;0.00;0.62;2.60;1.60;;;21.00;28.20;;;;;;2245329;61;20408;-61
2022/01/18 03:20:58;0.00;0.00;0.62;0.00;0.00;0.62;4.30;2.17;;;21.00;28.20;;;;;;2244950;61;20380;-61
2022/01/18 03:23:50;0.00;0.00;0.62;0.00;0.00;0.62;4.70;1.63;;;21.00;28.20;;;;;;2244643;61;20433;-61
2022/01/18 03:28:03;0.00;0.00;0.62;0.00;0.00;0.62;3.77;1.43;;;21.00;28.20;;;;;;2245808;61;20397;-62
2022/01/18 03:29:41;0.00;0.00;0.62;0.00;0.00;0.62;2.27;1.30;;;20.90;28.10;;;;;;2244285;61;20385;-61
2022/01/18 03:32:25;0.00;0.00;0.62;0.00;0.00;0.62;2.47;1.03;;;20.90;28.20;;;;;;2245390;61;20741;-61
2022/01/18 03:35:10;0.00;0.00;0.62;0.00;0.00;0.62;2.70;1.20;;;20.90;28.20;;;;;;2245258;61;20397;-61
2022/01/18 03:37:55;0.00;0.00;0.62;0.00;0.00;0.62;3.47;1.37;;;20.90;28.20;;;;;;2244381;61;20365;-61
2022/01/18 03:40:40;0.00;0.00;0.62;0.00;0.00;0.62;2.57;1.20;;;20.90;28.20;;;;;;2245252;61;20655;-61
2022/01/18 03:43:25;0.00;0.00;0.62;0.00;0.00;0.62;2.80;1.07;;;20.90;28.20;;;;;;2245192;61;20584;-61
2022/01/18 03:46:10;0.00;0.00;0.62;0.00;0.00;0.62;2.20;1.10;;;20.90;28.20;;;;;;2245817;61;20482;-61
2022/01/18 03:48:55;0.00;0.00;0.62;0.00;0.00;0.62;3.20;1.43;;;20.90;28.20;;;;;;2246427;61;20385;-61
2022/01/18 03:51:40;0.00;0.00;0.62;0.00;0.00;0.62;2.07;1.23;;;20.90;28.30;;;;;;2244989;61;20409;-60
2022/01/18 03:54:24;0.00;0.00;0.62;0.00;0.00;0.62;2.27;1.03;;;20.80;28.20;;;;;;2246119;61;20586;-61
2022/01/18 03:57:09;0.00;0.00;0.62;0.00;0.00;0.62;2.57;1.20;;;20.80;28.20;;;;;;2245557;61;20574;-61
2022/01/18 03:59:54;0.00;0.00;0.62;0.00;0.00;0.62;5.60;1.20;;;20.80;28.20;;;;;;2245305;61;20458;-61
2022/01/18 04:02:40;0.00;0.00;0.62;0.00;0.00;0.62;2.83;1.40;;;20.80;28.20;;;;;;2246058;61;20389;-60
2022/01/18 04:05:25;0.00;0.00;0.62;0.00;0.00;0.62;4.90;1.53;;;20.80;28.20;;;;;;2245656;61;20372;-60
2022/01/18 04:08:10;0.00;0.00;0.62;0.00;0.00;0.62;3.80;1.60;;;20.80;28.20;;;;;;2245597;61;20780;-61
2022/01/18 04:10:54;0.00;0.00;0.62;0.00;0.00;0.62;4.60;1.40;;;20.80;28.30;;;;;;2246208;61;20461;-61
2022/01/18 04:13:39;0.00;0.00;0.62;0.00;0.00;0.62;2.60;1.20;;;20.80;28.30;;;;;;2244770;61;20444;-58
2022/01/18 04:16:24;0.00;0.00;0.62;0.00;0.00;0.62;2.50;1.40;;;20.80;28.30;;;;;;2246246;61;20377;-61
2022/01/18 04:28:38;0.00;0.00;0.62;0.00;0.00;0.62;2.83;1.17;;;20.80;28.90;;;;;;2244843;61;20808;-61
2022/01/18 04:31:23;0.00;0.00;0.62;0.00;0.00;0.62;3.90;1.37;;;20.80;28.40;;;;;;2245768;61;20382;-61
2022/01/18 04:34:09;0.00;0.00;0.62;0.00;0.00;0.62;2.80;1.10;;;20.80;28.40;;;;;;2245843;61;20361;-59
2022/01/18 04:36:54;0.00;0.00;0.62;0.00;0.00;0.62;4.00;1.37;;;20.80;28.40;;;;;;2245465;61;20366;-60
2022/01/18 04:39:41;0.00;0.00;0.62;0.00;0.00;0.62;3.70;1.50;;;20.80;28.40;;;;;;2245680;61;20397;-60
2022/01/18 04:42:43;0.00;0.00;0.62;0.00;0.00;0.62;2.50;1.10;;;20.70;28.40;;;;;;2245433;61;20380;-60
2022/01/18 04:48:33;0.00;0.00;0.62;0.00;0.00;0.62;2.60;1.30;;;20.70;28.40;;;;;;2245868;61;20346;-60
2022/01/18 04:51:20;0.00;0.00;0.62;0.00;0.00;0.62;2.83;1.40;;;20.70;28.40;;;;;;2245036;61;20382;-61
2022/01/18 04:54:08;0.00;0.00;0.62;0.00;0.00;0.62;2.57;1.00;;;20.70;28.40;;;;;;2245739;61;20374;-59
2022/01/18 04:59:37;0.00;0.00;0.62;0.00;0.00;0.62;2.00;0.90;;;20.70;28.40;;;;;;2245200;61;20361;-61
2022/01/18 05:02:22;0.00;0.00;0.62;0.00;0.00;0.62;2.13;1.20;;;20.70;28.40;;;;;;2246017;61;20385;-63
2022/01/18 05:05:10;0.00;0.00;0.62;0.00;0.00;0.62;2.67;1.10;;;20.70;28.40;;;;;;2245028;61;20362;-60
2022/01/18 05:08:04;0.00;0.00;0.62;0.00;0.00;0.62;2.10;0.90;;;20.70;28.40;;;;;;2245655;61;20474;-60
2022/01/18 05:10:55;0.00;0.00;0.62;0.00;0.00;0.62;1.87;0.80;;;20.70;28.50;;;;;;2245652;61;20624;-60
2022/01/18 05:14:05;0.00;0.00;0.62;0.00;0.00;0.62;3.30;1.20;;;20.70;28.50;;;;;;2245027;61;20393;-60
2022/01/18 05:17:00;0.00;0.00;0.62;0.00;0.00;0.62;1.93;1.00;;;20.70;28.50;;;;;;2245724;61;20389;-61
2022/01/18 05:25:35;0.00;0.00;0.62;0.00;0.00;0.62;2.83;1.10;;;20.70;28.50;;;;;;2243972;61;20417;-60
2022/01/18 05:28:20;0.00;0.00;0.62;0.00;0.00;0.62;1.80;1.10;;;20.70;28.50;;;;;;2244875;61;20469;-60
2022/01/18 05:31:04;0.00;0.00;0.62;0.00;0.00;0.62;2.07;1.07;;;20.70;28.50;;;;;;2247676;61;20436;-60
2022/01/18 05:33:49;0.00;0.00;0.62;0.00;0.00;0.62;2.37;1.10;;;20.80;28.60;;;;;;2245387;61;20405;-61
2022/01/18 05:36:33;0.00;0.00;0.62;0.00;0.00;0.62;2.03;1.20;;;20.80;28.60;;;;;;2245285;61;20393;-60
2022/01/18 05:39:18;0.00;0.00;0.62;0.00;0.00;0.62;1.77;1.00;;;20.70;28.50;;;;;;2245748;61;20366;-61
2022/01/18 05:42:06;0.00;0.00;0.62;0.00;0.00;0.62;1.90;1.10;;;20.80;28.60;;;;;;2244927;61;20420;-61
2022/01/18 05:44:50;0.00;0.00;0.62;0.00;0.00;0.62;1.70;1.00;;;20.70;28.50;;;;;;2245602;61;20369;-61
2022/01/18 05:47:35;0.00;0.00;0.62;0.00;0.00;0.62;2.63;1.37;;;20.70;28.50;;;;;;2248086;61;20405;-61
2022/01/18 05:50:20;0.00;0.00;0.62;0.00;0.00;0.62;2.47;1.20;;;20.80;28.60;;;;;;2244747;61;20365;-61
2022/01/18 05:53:05;0.00;0.00;0.62;0.00;0.00;0.62;1.47;0.90;;;20.80;28.60;;;;;;2531501;46;20771;-61
2022/01/18 05:55:49;0.00;0.00;0.62;0.00;0.00;0.62;2.07;0.97;;;20.80;28.60;;;;;;2241228;62;20358;-62
2022/01/18 05:58:35;0.00;0.00;0.62;0.00;0.00;0.62;2.20;1.03;;;20.80;28.60;;;;;;2241178;62;20393;-61
2022/01/18 06:01:32;0.00;0.00;0.62;0.00;0.00;0.62;2.10;1.20;;;20.70;28.50;;;;;;2244592;61;20708;-60
2022/01/18 06:06:51;0.00;0.00;0.62;0.00;0.00;0.62;2.40;1.00;;;20.80;28.60;;;;;;2248945;61;20445;-61
2022/01/18 06:07:24;0.00;0.00;0.62;0.00;0.00;0.62;2.30;0.83;;;20.70;28.50;;;;;;2249380;61;20779;-60
2022/01/18 06:10:10;0.00;0.00;0.62;0.00;0.00;0.62;2.93;1.60;;;20.70;28.50;;;;;;2249461;61;20384;-61
2022/01/18 06:12:54;0.00;0.00;0.62;0.00;0.00;0.62;2.47;1.00;;;20.70;28.50;;;;;;2661596;46;20360;-61
2022/01/18 06:15:41;0.00;0.00;0.62;0.00;0.00;0.62;3.00;0.90;;;20.70;28.50;;;;;;2249539;61;20368;-60
2022/01/18 06:18:26;0.00;0.00;0.62;0.00;0.00;0.62;1.93;0.97;;;20.70;28.60;;;;;;2249018;61;20357;-60
2022/01/18 06:21:11;0.00;0.00;0.62;0.00;0.00;0.62;2.10;0.90;;;20.70;28.60;;;;;;2248975;61;20392;-61
2022/01/18 06:23:56;0.00;0.00;0.62;0.00;0.00;0.62;1.93;0.97;;;20.70;28.60;;;;;;2249943;61;20361;-61
2022/01/18 06:26:40;0.00;0.00;0.62;0.00;0.00;0.62;2.87;1.13;;;20.70;28.60;;;;;;2248381;61;20428;-60
2022/01/18 06:29:24;0.00;0.00;0.62;0.00;0.00;0.62;1.90;0.90;;;20.70;28.60;;;;;;2249536;61;20364;-60
2022/01/18 06:32:11;0.00;0.00;0.62;0.00;0.00;0.62;1.70;0.80;;;20.70;28.60;;;;;;2249482;61;20380;-61
2022/01/18 06:34:55;0.00;0.00;0.62;0.00;0.00;0.62;1.73;0.97;;;20.70;28.60;;;;;;2248773;61;20364;-60
2022/01/18 06:37:41;0.00;0.00;0.62;0.00;0.00;0.62;2.17;1.10;;;20.80;28.70;;;;;;2249427;61;20392;-60
2022/01/18 06:40:26;0.00;0.00;0.62;0.00;0.00;0.62;1.43;1.00;;;20.70;28.60;;;;;;2248918;61;20646;-60
2022/01/18 06:43:10;0.00;0.00;0.62;0.00;0.00;0.62;2.33;1.00;;;20.80;28.70;;;;;;2248976;61;20364;-60
2022/01/18 06:45:55;0.00;0.00;0.62;0.00;0.00;0.62;1.80;0.80;;;20.80;28.70;;;;;;2249717;61;20449;-60
2022/01/18 06:48:44;0.00;0.00;0.62;0.00;0.00;0.62;1.70;0.77;;;20.80;28.70;;;;;;2248837;61;20377;-61
2022/01/18 06:51:28;0.00;0.00;0.62;0.00;0.00;0.62;1.40;0.80;;;20.80;28.70;;;;;;2249342;61;20462;-60
2022/01/18 06:54:16;0.00;0.00;0.62;0.00;0.00;0.62;1.90;0.80;;;20.80;28.70;;;;;;2249410;61;20434;-60
2022/01/18 06:57:00;0.00;0.00;0.62;0.00;0.00;0.62;1.77;0.90;;;20.80;28.70;;;;;;2248250;61;20392;-61
2022/01/18 06:59:45;0.00;0.00;0.62;0.00;0.00;0.62;2.27;0.90;;;20.80;28.70;;;;;;2248937;61;20428;-60
2022/01/18 07:02:29;0.00;0.00;0.62;0.00;0.00;0.62;2.33;0.70;;;20.80;28.70;;;;;;2248945;61;20725;-62
2022/01/18 07:05:16;0.00;0.00;0.62;0.00;0.00;0.62;2.40;1.17;;;20.80;28.70;;;;;;2248951;61;20360;-60
2022/01/18 07:08:00;0.00;0.00;0.62;0.00;0.00;0.62;1.80;1.00;;;20.80;28.70;;;;;;2249376;61;20465;-60
2022/01/18 07:10:45;0.00;0.00;0.62;0.00;0.00;0.62;1.43;0.70;;;20.80;28.60;;;;;;2248735;61;20748;-62
2022/01/18 07:13:29;0.00;0.00;0.62;0.00;0.00;0.62;1.73;0.70;;;20.80;28.60;;;;;;2249381;61;20404;-60
2022/01/18 07:16:14;0.00;0.00;0.62;0.00;0.00;0.62;1.40;0.80;;;20.80;28.60;;;;;;2249317;61;20381;-60
2022/01/18 07:18:59;0.00;0.00;0.62;0.00;0.00;0.62;1.70;0.80;;;20.80;28.60;;;;;;2248754;61;20356;-60
2022/01/18 07:21:45;0.00;0.00;0.62;0.00;0.00;0.62;1.23;0.70;;;20.80;28.60;;;;;;2249926;61;20380;-61
2022/01/18 07:24:38;0.00;0.00;0.62;0.00;0.00;0.62;3.10;0.93;;;20.80;28.60;;;;;;2250066;61;20739;-61
2022/01/18 07:27:23;0.00;0.00;0.62;0.00;0.00;0.62;2.13;0.90;;;20.80;28.60;;;;;;2249468;61;20428;-61
2022/01/18 07:30:10;0.00;0.00;0.62;0.00;0.00;0.62;1.60;0.87;;;20.80;28.60;;;;;;2249893;61;20392;-61
2022/01/18 07:32:54;0.00;0.00;0.62;0.00;0.00;0.62;1.60;0.90;;;20.80;28.60;;;;;;2249749;61;20451;-60
2022/01/18 07:35:40;0.00;0.00;0.62;0.00;0.00;0.62;2.07;0.90;;;20.90;28.70;;;;;;2249841;61;20407;-60
2022/01/18 07:38:25;0.00;0.00;0.62;0.00;0.00;0.62;1.40;0.70;;;20.80;28.60;;;;;;2250292;61;20411;-60
2022/01/18 07:41:10;0.00;0.00;0.62;0.00;0.00;0.62;1.37;0.73;;;20.90;28.70;;;;;;2249107;61;20385;-60
2022/01/18 07:43:54;0.00;0.00;0.62;0.00;0.00;0.62;1.50;0.90;;;20.90;28.70;;;;;;2249751;61;20364;-60
2022/01/18 07:46:39;0.00;0.00;0.62;0.00;0.00;0.62;1.70;0.80;;;20.90;28.70;;;;;;2249986;61;20798;-59
2022/01/18 07:49:23;0.00;0.00;0.62;0.00;0.00;0.62;1.60;0.90;;;20.90;28.70;;;;;;2249739;61;20456;-60
2022/01/18 07:52:08;0.00;0.00;0.62;0.00;0.00;0.62;1.67;0.90;;;20.90;28.70;;;;;;2249941;61;20385;-60
2022/01/18 07:54:54;0.00;0.00;0.62;0.00;0.00;0.62;1.60;0.80;;;20.90;28.70;;;;;;2249681;61;20364;-60
2022/01/18 07:57:42;0.00;0.00;0.62;0.00;0.00;0.62;1.73;0.87;;;20.90;28.70;;;;;;2249343;61;20372;-60
2022/01/18 08:00:28;0.00;0.00;0.62;0.00;0.00;0.62;1.30;0.70;;;20.90;28.70;;;;;;2250182;61;20587;-60
2022/01/18 08:03:12;0.00;0.00;0.62;0.00;0.00;0.62;1.30;0.70;;;20.90;28.60;;;;;;2249105;61;20365;-61
2022/01/18 08:05:57;0.00;0.00;0.62;0.00;0.00;0.62;1.83;0.87;;;21.00;28.70;;;;;;2249933;61;20449;-60
2022/01/18 08:08:42;0.00;0.00;0.62;0.00;0.00;0.62;1.30;0.73;;;20.90;28.60;;;;;;2249932;61;20388;-61
2022/01/18 08:11:28;0.00;0.00;0.62;0.00;0.00;0.62;1.67;0.77;;;20.90;28.60;;;;;;2249308;61;20420;-60
2022/01/18 08:14:13;0.00;0.00;0.62;0.00;0.00;0.62;1.50;0.70;;;21.00;28.70;;;;;;2249967;61;20437;-59
2022/01/18 08:17:04;0.00;0.00;0.62;0.00;0.00;0.62;1.70;0.90;;;21.00;28.70;;;;;;2249829;61;20612;-60
2022/01/18 08:19:48;0.00;0.00;0.62;0.00;0.00;0.62;1.67;0.70;;;20.90;28.60;;;;;;2249224;61;20479;-60
2022/01/18 08:22:33;0.00;0.00;0.62;0.00;0.00;0.62;1.60;0.80;;;21.00;28.70;;;;;;2250163;61;20379;-60
2022/01/18 08:25:17;0.00;0.00;0.62;0.00;0.00;0.62;1.80;0.83;;;21.00;28.70;;;;;;2249014;61;20588;-61
2022/01/18 08:28:03;0.00;0.00;0.62;0.00;0.00;0.62;1.30;0.73;;;21.00;28.70;;;;;;2249883;61;20465;-60
2022/01/18 08:30:48;0.00;0.00;0.62;0.00;0.00;0.62;1.50;0.90;;;21.00;28.70;;;;;;2249773;61;20423;-60
2022/01/18 08:33:33;0.00;0.00;0.62;0.00;0.00;0.62;1.20;0.70;;;21.00;28.70;;;;;;2249274;61;20396;-60
2022/01/18 08:36:19;0.00;0.00;0.62;0.00;0.00;0.62;1.90;0.90;;;21.00;28.70;;;;;;2249789;61;20380;-62
2022/01/18 08:39:04;0.00;0.00;0.62;0.00;0.00;0.62;1.70;0.80;;;21.00;28.70;;;;;;2249374;61;20413;-60
2022/01/18 08:41:49;0.00;0.00;0.62;0.00;0.00;0.62;1.20;0.60;;;21.00;28.60;;;;;;2249222;61;20387;-60
2022/01/18 08:44:36;0.00;0.00;0.62;0.00;0.00;0.62;1.73;1.00;;;21.00;28.60;;;;;;2250163;61;20365;-60
2022/01/18 08:47:21;0.00;0.00;0.62;0.00;0.00;0.62;1.93;0.73;;;21.00;28.60;;;;;;2248605;61;20405;-60
2022/01/18 08:50:08;0.00;0.00;0.62;0.00;0.00;0.62;1.40;0.60;;;21.00;28.60;;;;;;2249668;61;20411;-60
2022/01/18 08:52:52;0.00;0.00;0.62;0.00;0.00;0.62;1.40;0.70;;;21.00;28.60;;;;;;2249837;61;20389;-60
2022/01/18 08:55:37;0.00;0.00;0.62;0.00;0.00;0.62;1.20;0.60;;;21.00;28.60;;;;;;2249110;61;20473;-60
2022/01/18 08:58:22;0.00;0.00;0.62;0.00;0.00;0.62;1.23;0.63;;;21.00;28.60;;;;;;2249715;61;20356;-61
2022/01/18 09:01:08;0.00;0.00;0.62;0.00;0.00;0.62;1.20;0.63;;;21.10;28.70;;;;;;2248998;61;20383;-61
2022/01/18 09:03:53;0.00;0.00;0.62;0.00;0.00;0.62;1.40;0.80;;;21.00;28.60;;;;;;2249416;61;20376;-60
2022/01/18 09:06:38;0.00;0.00;0.62;0.00;0.00;0.62;1.53;0.80;;;21.10;28.70;;;;;;2249996;61;20380;-61
2022/01/18 09:09:26;0.00;0.00;0.62;0.00;0.00;0.62;1.20;0.60;;;21.10;28.70;;;;;;2248735;61;20392;-60
2022/01/18 09:12:13;0.00;0.00;0.62;0.00;0.00;0.62;1.47;0.70;;;21.10;28.70;;;;;;2249591;61;20468;-60
2022/01/18 09:15:00;0.00;0.00;0.62;0.00;0.00;0.62;1.73;0.70;;;21.10;28.70;;;;;;2249733;61;20424;-60
2022/01/18 09:17:45;0.00;0.00;0.62;0.00;0.00;0.62;1.30;0.60;;;21.10;28.70;;;;;;2248832;61;20365;-61
2022/01/18 09:20:31;0.00;0.00;0.62;0.00;0.00;0.62;1.80;0.80;;;21.10;28.70;;;;;;2249369;61;20436;-59
2022/01/18 09:23:15;0.00;0.00;0.62;0.00;0.00;0.62;1.87;0.83;;;21.10;28.70;;;;;;2249347;61;20465;-60
2022/01/18 09:26:00;0.00;0.00;0.62;0.00;0.00;0.62;1.30;0.70;;;21.10;28.70;;;;;;2249167;61;20396;-60
2022/01/18 09:28:44;0.00;0.00;0.62;0.00;0.00;0.62;1.40;0.87;;;21.10;28.70;;;;;;2249776;61;20396;-60
2022/01/18 09:31:29;0.00;0.00;0.62;0.00;0.00;0.62;1.30;0.87;;;21.10;28.70;;;;;;2248863;61;20437;-60
2022/01/18 09:34:15;0.00;0.00;0.62;0.00;0.00;0.62;1.20;0.70;;;21.10;28.70;;;;;;2249495;61;20388;-61
2022/01/18 09:37:00;0.00;0.00;0.62;0.00;0.00;0.62;1.37;0.70;;;21.20;28.70;;;;;;2249652;61;20369;-61
2022/01/18 09:39:45;0.00;0.00;0.62;0.00;0.00;0.62;1.30;0.70;;;21.20;28.70;;;;;;2248711;61;20360;-61
2022/01/18 09:42:39;0.00;0.00;0.62;0.00;0.00;0.62;1.80;1.00;;;21.20;28.70;;;;;;2249481;61;20399;-60
2022/01/18 09:45:26;0.00;0.00;0.62;0.00;0.00;0.62;1.40;0.80;;;21.20;28.70;;;;;;2249313;61;20365;-61
2022/01/18 09:48:13;0.00;0.00;0.62;0.00;0.00;0.62;1.60;1.03;;;21.20;28.70;;;;;;2249129;61;20440;-60
2022/01/18 09:51:00;0.00;0.00;0.62;0.00;0.00;0.62;1.30;0.80;;;21.20;28.70;;;;;;2249638;61;20384;-59
2022/01/18 09:53:45;0.00;0.00;0.62;0.00;0.00;0.62;1.30;0.70;;;21.20;28.70;;;;;;2248860;61;20736;-60
2022/01/18 09:56:30;0.00;0.00;0.62;0.00;0.00;0.62;1.20;0.60;;;21.20;28.70;;;;;;2249475;61;20453;-61
2022/01/18 09:59:14;0.00;0.00;0.62;0.00;0.00;0.62;1.30;0.60;;;21.20;28.70;;;;;;2249464;61;20364;-61
2022/01/18 10:02:01;0.00;0.00;0.62;0.00;0.00;0.62;1.60;0.70;;;21.20;28.70;;;;;;2248631;61;20388;-61
2022/01/18 10:04:48;0.00;0.00;0.62;0.00;0.00;0.62;1.30;0.70;;;21.20;28.70;;;;;;2249746;61;20388;-61
2022/01/18 10:07:36;0.00;0.00;0.62;0.00;0.00;0.62;1.37;0.70;;;21.20;28.70;;;;;;2249151;61;20439;-61
2022/01/18 10:10:33;0.00;0.00;0.62;0.00;0.00;0.62;2.03;0.70;;;21.20;28.70;;;;;;2248879;61;20365;-61
2022/01/18 10:13:21;0.00;0.00;0.62;0.00;0.00;0.62;1.43;1.00;;;21.20;28.70;;;;;;2249509;61;20597;-61
2022/01/18 10:16:09;0.00;0.00;0.62;0.00;0.00;0.62;1.63;0.87;;;21.30;28.80;;;;;;2248029;61;20368;-63
2022/01/18 10:19:02;0.00;0.00;0.62;0.00;0.00;0.62;1.20;0.80;;;21.30;28.80;;;;;;2249623;61;20357;-60
2022/01/18 10:21:49;0.00;0.00;0.62;0.00;0.00;0.62;1.47;0.80;;;21.30;28.80;;;;;;2249544;61;20830;-61
2022/01/18 10:24:35;0.00;0.00;0.62;0.00;0.00;0.62;1.20;0.70;;;21.30;28.80;;;;;;2248893;61;20384;-61
2022/01/18 10:27:20;0.00;0.00;0.62;0.00;0.00;0.62;1.40;0.80;;;21.30;28.80;;;;;;2249511;61;20509;-60
2022/01/18 10:30:10;0.00;0.00;0.62;0.00;0.00;0.62;1.50;0.70;;;21.30;28.80;;;;;;2249121;61;20388;-60
2022/01/18 10:33:07;0.00;0.00;0.62;0.00;0.00;0.62;1.40;0.80;;;21.30;28.70;;;;;;2248966;61;20408;-61
2022/01/18 10:36:10;0.00;0.00;0.62;0.00;0.00;0.62;1.20;0.60;;;21.30;28.70;;;;;;2249768;61;20388;-61
2022/01/18 10:39:00;0.00;0.00;0.62;0.00;0.00;0.62;1.23;0.60;;;21.30;28.80;;;;;;2248438;61;20399;-61
2022/01/18 10:41:46;0.00;0.00;0.62;0.00;0.00;0.62;1.47;0.83;;;21.30;28.80;;;;;;2249340;61;20441;-60
2022/01/18 10:44:31;0.00;0.00;0.62;0.00;0.00;0.62;1.60;0.60;;;21.30;28.70;;;;;;2249023;61;20364;-61
2022/01/18 10:47:17;0.00;0.00;0.62;0.00;0.00;0.62;1.27;0.67;;;21.30;28.70;;;;;;2248914;61;20755;-60
2022/01/18 10:50:12;0.00;0.00;0.62;0.00;0.00;0.62;1.20;0.60;;;21.30;28.70;;;;;;2249539;61;20412;-60
2022/01/18 10:53:11;0.00;0.00;0.62;0.00;0.00;0.62;1.70;0.70;;;21.40;28.80;;;;;;2248372;61;20360;-59
2022/01/18 10:56:16;0.00;0.00;0.62;0.00;0.00;0.62;1.30;0.60;;;21.30;28.70;;;;;;2249419;61;20361;-61
2022/01/18 10:59:03;0.00;0.00;0.62;0.00;0.00;0.62;1.40;0.80;;;21.30;28.70;;;;;;2249277;61;20400;-61
2022/01/18 11:02:04;0.00;0.00;0.62;0.00;0.00;0.62;1.40;0.80;;;21.30;28.70;;;;;;2248683;61;20388;-61
2022/01/18 11:04:51;0.00;0.00;0.62;0.00;0.00;0.62;1.30;0.70;;;21.30;28.70;;;;;;2249504;61;20577;-59
2022/01/18 11:07:39;0.00;0.00;0.62;0.00;0.00;0.62;1.40;0.63;;;21.40;28.80;;;;;;2248711;61;20388;-60
2022/01/18 11:10:30;0.00;0.00;0.62;0.00;0.00;0.62;1.50;0.90;;;21.30;28.70;;;;;;2249238;61;20385;-61
2022/01/18 11:13:22;0.00;0.00;0.62;0.00;0.00;0.62;1.30;0.70;;;21.30;28.70;;;;;;2249316;61;20377;-61
2022/01/18 11:16:15;0.00;0.00;0.62;0.00;0.00;0.62;1.60;0.83;;;21.30;29.20;;;;;;2248701;61;20928;-61
2022/01/18 11:19:00;0.00;0.00;0.62;0.00;0.00;0.62;1.43;0.70;;;21.40;28.80;;;;;;2249311;61;20693;-60
2022/01/18 11:21:46;0.00;0.00;0.62;0.00;0.00;0.62;1.30;0.73;;;21.40;28.80;;;;;;2248904;61;20420;-61
2022/01/18 11:24:31;0.00;0.00;0.62;0.00;0.00;0.62;1.30;0.70;;;21.40;28.70;;;;;;2249019;61;20408;-60
2022/01/18 11:27:18;0.00;0.00;0.62;0.00;0.00;0.62;1.60;0.80;;;21.40;28.70;;;;;;2249599;61;20751;-60
2022/01/18 11:30:07;0.00;0.00;0.62;0.00;0.00;0.62;1.30;0.60;;;21.40;29.30;;;;;;2248346;61;20360;-60
2022/01/18 11:32:56;0.00;0.00;0.62;0.00;0.00;0.62;1.60;0.63;;;21.40;28.70;;;;;;2249614;61;20396;-60
2022/01/18 11:35:48;0.00;0.00;0.62;0.00;0.00;0.62;1.53;0.90;;;21.40;28.80;;;;;;2249234;61;20737;-60
2022/01/18 11:38:39;0.00;0.00;0.62;0.00;0.00;0.62;1.50;0.80;;;21.40;28.70;;;;;;2248737;61;20376;-60
2022/01/18 11:41:26;0.00;0.00;0.62;0.00;0.00;0.62;1.30;0.63;;;21.40;28.80;;;;;;2248966;61;20448;-60
2022/01/18 11:44:14;0.00;0.00;0.62;0.00;0.00;0.62;1.47;0.80;;;21.40;28.70;;;;;;2248941;61;20457;-61
2022/01/18 11:46:59;0.00;0.00;0.62;0.00;0.00;0.62;1.30;0.60;;;21.40;28.70;;;;;;2248732;61;20469;-60
2022/01/18 11:49:48;0.00;0.00;0.62;0.00;0.00;0.62;3.43;0.70;;;21.40;28.70;;;;;;2249292;61;20361;-61
2022/01/18 11:52:37;0.00;0.00;0.62;0.00;0.00;0.62;1.70;0.80;;;21.40;28.70;;;;;;2248355;61;20824;-60
2022/01/18 11:55:36;0.00;0.00;0.62;0.00;0.00;0.62;1.40;0.77;;;21.40;29.30;;;;;;2249187;61;20741;-61
2022/01/18 11:58:22;0.00;0.00;0.62;0.00;0.00;0.62;1.17;0.70;;;21.40;28.70;;;;;;2249215;61;20631;-60